Eurika — LYRZ — position and weather

sailwx.info

Track history (hours):
 
Tides and Currents Weather Stations Pressure Air Temp Water Temp Dewpoint Dewpoint Depression Visibility Wind Speed Wind Dir Waves Ship Positions

Eurika

Last reported at 2017-Feb-25 01:18 UTC. Time now 2017-Feb-26 13:13 UTC.
Position N 38°33' E 015°08'.

Length 79 m; draft 3.2 m.

MMSI: 277335000.

Date/timePositionNaut miles runAvg speedWind from/ knotsBaromVisibWave heightAir tempDewpointWater temp
2017-Feb-25 01:18N 38°33' E 015°08'6 7.5
2017-Feb-25 00:28N 38°30' E 015°15'7 7.3
2017-Feb-24 23:32N 38°27' E 015°23'7 7.3
2017-Feb-24 22:33N 38°23' E 015°31'8 7.6
2017-Feb-24 21:33N 38°20' E 015°39'5 4.6
2017-Feb-24 20:34N 38°15' E 015°39'4 4.0
2017-Feb-24 19:34N 38°11' E 015°37'7 6.6
2017-Feb-24 18:33N 38°05' E 015°36'7 6.8
2017-Feb-24 17:33N 37°58' E 015°36'9 7.3
2017-Feb-24 16:20N 37°53' E 015°45'  
2017-Feb-19 09:30N 37°54' E 015°44'8 8.1
2017-Feb-19 08:31N 37°59' E 015°36'9 9.2
2017-Feb-19 07:33N 38°07' E 015°35'9 9.2
2017-Feb-19 06:33N 38°16' E 015°40'7 7.3
2017-Feb-19 05:32N 38°20' E 015°32'11 8.9
2017-Feb-19 04:21N 38°20' E 015°18'7 9.2
2017-Feb-19 03:32N 38°19' E 015°09'80 8.8
2017-Feb-18 18:22N 38°20' E 013°27'16 8.0
2017-Feb-18 16:18N 38°19' E 013°06'  
Track history (hours):
 
Tides and Currents Weather Stations Pressure Air Temp Water Temp Dewpoint Dewpoint Depression Visibility Wind Speed Wind Dir Waves Ship Positions

Eurika

Last reported at 2017-Feb-25 01:18 UTC. Time now 2017-Feb-26 13:13 UTC.
Position N 38°33' E 015°08'.

Length 79 m; draft 3.2 m.

MMSI: 277335000.

Date/timePositionNaut miles runAvg speedWind from/ knotsBaromVisibWave heightAir tempDewpointWater temp
2017-Feb-25 01:18N 38°33' E 015°08'6 7.5
2017-Feb-25 00:28N 38°30' E 015°15'7 7.3
2017-Feb-24 23:32N 38°27' E 015°23'7 7.3
2017-Feb-24 22:33N 38°23' E 015°31'8 7.6
2017-Feb-24 21:33N 38°20' E 015°39'5 4.6
2017-Feb-24 20:34N 38°15' E 015°39'4 4.0
2017-Feb-24 19:34N 38°11' E 015°37'7 6.6
2017-Feb-24 18:33N 38°05' E 015°36'7 6.8
2017-Feb-24 17:33N 37°58' E 015°36'9 7.3
2017-Feb-24 16:20N 37°53' E 015°45'  
2017-Feb-19 09:30N 37°54' E 015°44'8 8.1
2017-Feb-19 08:31N 37°59' E 015°36'9 9.2
2017-Feb-19 07:33N 38°07' E 015°35'9 9.2
2017-Feb-19 06:33N 38°16' E 015°40'7 7.3
2017-Feb-19 05:32N 38°20' E 015°32'11 8.9
2017-Feb-19 04:21N 38°20' E 015°18'7 9.2
2017-Feb-19 03:32N 38°19' E 015°09'80 8.8
2017-Feb-18 18:22N 38°20' E 013°27'16 8.0
2017-Feb-18 16:18N 38°19' E 013°06'  

Dump ship's entire track history